createdAt,value
2022-12-01T00:01:35.868Z,81.90
2022-12-01T00:04:07.453Z,82.68
2022-12-01T00:06:37.463Z,81.84
2022-12-01T00:09:25.023Z,81.37
2022-12-01T00:11:54.774Z,82.29
2022-12-01T00:14:21.720Z,81.96
2022-12-01T00:16:54.144Z,81.41
2022-12-01T00:19:25.753Z,82.60
2022-12-01T00:21:55.057Z,83.61
2022-12-01T00:24:25.365Z,83.11
2022-12-01T00:26:54.736Z,82.53
2022-12-01T00:29:22.070Z,82.91
2022-12-01T00:31:49.128Z,83.44
2022-12-01T00:34:24.498Z,83.56
2022-12-01T00:36:54.016Z,82.31
2022-12-01T00:39:21.243Z,82.07
2022-12-01T00:41:48.234Z,82.59
2022-12-01T00:44:18.467Z,83.62
2022-12-01T00:46:45.891Z,83.14
2022-12-01T00:49:13.841Z,84.09
2022-12-01T00:51:43.284Z,83.59
2022-12-01T00:54:10.222Z,82.50
2022-12-01T00:56:37.323Z,83.43
2022-12-01T00:59:04.309Z,83.03
2022-12-01T01:01:31.447Z,83.13
2022-12-01T01:03:58.815Z,83.04
2022-12-01T01:06:28.854Z,82.48
2022-12-01T01:09:01.378Z,82.93
2022-12-01T01:11:30.429Z,82.12
2022-12-01T01:14:01.763Z,82.51
2022-12-01T01:16:31.434Z,82.78
2022-12-01T01:18:58.714Z,82.54
2022-12-01T01:21:26.784Z,83.40
2022-12-01T01:23:55.579Z,82.92
2022-12-01T01:26:28.596Z,84.81
2022-12-01T01:29:03.479Z,84.06
2022-12-01T01:31:33.243Z,83.51
2022-12-01T01:34:05.879Z,84.26
2022-12-01T01:36:33.096Z,84.40
2022-12-01T01:39:01.762Z,83.55
2022-12-01T01:41:29.039Z,82.77
2022-12-01T01:44:02.997Z,83.59
2022-12-01T01:46:34.523Z,82.84
2022-12-01T01:49:22.571Z,82.94
2022-12-01T01:51:55.248Z,83.58
2022-12-01T01:54:51.408Z,83.83
2022-12-01T01:57:31.257Z,84.35
2022-12-01T02:00:14.605Z,84.71
2022-12-01T02:02:44.830Z,84.38
2022-12-01T02:05:27.582Z,83.47
2022-12-01T02:07:57.963Z,86.28
2022-12-01T02:10:56.786Z,87.61
2022-12-01T02:14:06.176Z,86.97
2022-12-01T02:16:55.402Z,87.33
2022-12-01T02:19:43.174Z,86.62
2022-12-01T02:22:42.895Z,87.14
2022-12-01T02:26:02.235Z,85.63
2022-12-01T02:29:02.737Z,85.95
2022-12-01T02:31:52.112Z,83.98
2022-12-01T02:34:47.029Z,84.92
2022-12-01T02:37:32.096Z,86.01
2022-12-01T02:40:24.003Z,86.37
2022-12-01T02:43:13.191Z,85.69
2022-12-01T02:46:11.395Z,86.05
2022-12-01T02:48:43.100Z,86.70
2022-12-01T02:51:33.847Z,86.17
2022-12-01T02:54:03.171Z,85.40
2022-12-01T02:56:30.102Z,84.86
2022-12-01T02:58:57.183Z,85.28
2022-12-01T03:01:39.277Z,85.97
2022-12-01T03:04:15.415Z,85.36
2022-12-01T03:06:52.411Z,86.28
2022-12-01T03:10:06.087Z,85.74
2022-12-01T03:12:47.488Z,84.51
2022-12-01T03:15:41.445Z,85.27
2022-12-01T03:18:32.455Z,85.35
2022-12-01T03:21:20.084Z,85.53
2022-12-01T03:24:02.771Z,83.67
2022-12-01T03:26:37.059Z,84.91
2022-12-01T03:29:19.132Z,85.77
2022-12-01T03:31:57.024Z,85.44
2022-12-01T03:34:26.745Z,85.62
2022-12-01T03:37:01.353Z,86.58
2022-12-01T03:39:35.435Z,87.46
2022-12-01T03:42:16.073Z,88.19
2022-12-01T03:44:57.760Z,89.15
2022-12-01T03:47:32.364Z,88.53
2022-12-01T03:50:00.666Z,88.38
2022-12-01T03:52:46.859Z,87.50
2022-12-01T03:55:32.318Z,85.69
2022-12-01T03:58:44.898Z,87.12
2022-12-01T04:01:14.581Z,86.10
2022-12-01T04:03:47.969Z,87.63
2022-12-01T04:06:18.163Z,87.83
2022-12-01T04:08:45.256Z,86.52
2022-12-01T04:11:32.858Z,85.15
2022-12-01T04:14:03.001Z,85.89
2022-12-01T04:16:32.412Z,87.35
2022-12-01T04:18:59.367Z,86.77
2022-12-01T04:21:28.462Z,86.13
2022-12-01T04:24:01.602Z,85.97
2022-12-01T04:26:34.535Z,85.58
2022-12-01T04:29:07.959Z,84.34
2022-12-01T04:31:37.543Z,84.58
2022-12-01T04:34:09.658Z,83.17
2022-12-01T04:36:36.631Z,83.54
2022-12-01T04:39:06.309Z,83.70
2022-12-01T04:41:35.571Z,83.38
2022-12-01T04:44:05.263Z,82.73
2022-12-01T04:46:32.305Z,82.49
2022-12-01T04:48:59.236Z,82.35
2022-12-01T04:51:31.036Z,82.46
2022-12-01T04:53:58.086Z,82.59
2022-12-01T04:56:25.133Z,82.40
2022-12-01T04:58:52.235Z,81.33
2022-12-01T05:01:22.703Z,81.27
2022-12-01T05:03:52.270Z,82.10
2022-12-01T05:06:23.864Z,83.28
2022-12-01T05:08:51.958Z,83.17
2022-12-01T05:11:23.834Z,83.64
2022-12-01T05:13:51.180Z,83.92
2022-12-01T05:16:23.316Z,83.33
2022-12-01T05:19:20.923Z,83.38
2022-12-01T05:21:51.806Z,82.66
2022-12-01T05:24:22.888Z,81.48
2022-12-01T05:26:49.834Z,82.61
2022-12-01T05:29:19.475Z,82.39
2022-12-01T05:31:47.353Z,82.88
2022-12-01T05:34:14.749Z,83.56
2022-12-01T05:36:42.038Z,82.03
2022-12-01T05:39:09.433Z,82.62
2022-12-01T05:41:36.737Z,83.91
2022-12-01T05:44:04.207Z,84.76
2022-12-01T05:46:33.611Z,84.22
2022-12-01T05:49:03.367Z,84.09
2022-12-01T05:51:33.399Z,84.04
2022-12-01T05:54:01.952Z,83.95
2022-12-01T05:56:29.018Z,82.67
2022-12-01T05:58:56.220Z,84.64
2022-12-01T06:01:23.376Z,85.45
2022-12-01T06:03:52.586Z,87.10
2022-12-01T06:06:20.248Z,87.08
2022-12-01T06:08:52.821Z,86.63
2022-12-01T06:11:20.161Z,86.17
2022-12-01T06:13:47.028Z,85.01
2022-12-01T06:16:13.992Z,85.95
2022-12-01T06:18:40.977Z,85.69
2022-12-01T06:21:08.115Z,85.29
2022-12-01T06:23:37.483Z,84.43
2022-12-01T06:26:07.365Z,85.78
2022-12-01T06:28:34.619Z,86.86
2022-12-01T06:31:09.037Z,86.34
2022-12-01T06:33:38.152Z,85.58
2022-12-01T06:36:07.011Z,84.19
2022-12-01T06:38:37.786Z,83.24
2022-12-01T06:41:08.432Z,84.26
2022-12-01T06:43:38.655Z,82.77
2022-12-01T06:46:08.692Z,82.36
2022-12-01T06:48:35.738Z,82.03
2022-12-01T06:51:03.223Z,81.67
2022-12-01T06:53:33.066Z,81.88
2022-12-01T06:56:04.817Z,82.02
2022-12-01T06:58:34.926Z,82.30
2022-12-01T07:01:12.160Z,82.19
2022-12-01T07:03:47.458Z,81.87
2022-12-01T07:06:14.583Z,82.66
2022-12-01T07:08:41.624Z,82.19
2022-12-01T07:11:15.010Z,81.59
2022-12-01T07:13:45.268Z,82.00
2022-12-01T07:16:12.775Z,82.19
2022-12-01T07:18:40.491Z,82.77
2022-12-01T07:21:13.210Z,81.25
2022-12-01T07:23:43.094Z,82.27
2022-12-01T07:26:12.564Z,81.90
2022-12-01T07:28:39.603Z,80.92
2022-12-01T07:31:18.744Z,81.14
2022-12-01T07:33:45.963Z,81.06
2022-12-01T07:36:13.954Z,81.28
2022-12-01T07:38:41.662Z,80.11
2022-12-01T07:41:19.071Z,79.67
2022-12-01T07:43:49.981Z,79.15
2022-12-01T07:46:24.218Z,79.52
2022-12-01T07:48:52.924Z,80.30
2022-12-01T07:51:24.263Z,81.19
2022-12-01T07:53:55.098Z,82.95
2022-12-01T07:56:23.138Z,84.00
2022-12-01T07:58:52.609Z,84.23
2022-12-01T08:01:23.839Z,85.01
2022-12-01T08:03:54.303Z,84.96
2022-12-01T08:06:22.656Z,84.25
2022-12-01T08:08:50.241Z,83.27
2022-12-01T08:11:24.829Z,83.24
2022-12-01T08:13:54.588Z,83.40
2022-12-01T08:16:25.809Z,84.08
2022-12-01T08:18:53.450Z,83.73
2022-12-01T08:21:23.634Z,84.02
2022-12-01T08:23:56.533Z,85.91
2022-12-01T08:26:25.749Z,85.72
2022-12-01T08:28:52.812Z,85.27
2022-12-01T08:31:29.016Z,84.30
2022-12-01T08:33:56.379Z,83.26
2022-12-01T08:36:26.317Z,83.81
2022-12-01T08:38:55.855Z,85.11
2022-12-01T08:41:24.638Z,84.10
2022-12-01T08:43:59.820Z,84.73
2022-12-01T08:46:32.410Z,84.52
2022-12-01T08:49:04.028Z,85.79
2022-12-01T08:51:33.901Z,85.64
2022-12-01T08:54:03.372Z,84.84
2022-12-01T08:56:44.349Z,86.26
2022-12-01T08:59:11.966Z,85.55
2022-12-01T09:01:53.571Z,84.61
2022-12-01T09:04:25.168Z,83.87
2022-12-01T09:06:54.983Z,83.64
2022-12-01T09:09:28.447Z,83.91
2022-12-01T09:11:59.947Z,83.41
2022-12-01T09:14:29.929Z,83.42
2022-12-01T09:16:57.093Z,83.27
2022-12-01T09:19:28.516Z,83.15
2022-12-01T09:21:55.506Z,83.49
2022-12-01T09:24:23.114Z,83.60
2022-12-01T09:26:50.413Z,83.51
2022-12-01T09:29:17.497Z,82.29
2022-12-01T09:31:47.218Z,82.06
2022-12-01T09:34:19.819Z,82.02
2022-12-01T09:36:47.842Z,81.34
2022-12-01T09:39:21.188Z,81.75
2022-12-01T09:42:09.183Z,82.65
2022-12-01T09:44:39.093Z,83.99
2022-12-01T09:47:40.118Z,84.12
2022-12-01T09:50:24.076Z,84.14
2022-12-01T09:53:08.918Z,86.21
2022-12-01T09:55:36.273Z,88.20
2022-12-01T09:58:07.290Z,88.86
2022-12-01T10:00:44.016Z,88.28
2022-12-01T10:03:36.451Z,89.38
2022-12-01T10:06:28.499Z,88.99
2022-12-01T10:09:30.147Z,88.86
2022-12-01T10:12:16.905Z,88.54
2022-12-01T10:14:50.459Z,88.11
2022-12-01T10:18:05.383Z,87.86
2022-12-01T10:20:41.386Z,86.93
2022-12-01T10:23:39.607Z,87.69
2022-12-01T10:26:31.407Z,87.13
2022-12-01T10:29:07.051Z,87.38
2022-12-01T10:32:03.292Z,85.96
2022-12-01T10:34:42.215Z,86.58
2022-12-01T10:37:28.050Z,86.14
2022-12-01T10:40:00.443Z,87.91
2022-12-01T10:42:39.567Z,89.02
2022-12-01T10:45:24.206Z,88.82
2022-12-01T10:48:23.527Z,88.53
2022-12-01T10:51:13.913Z,87.50
2022-12-01T10:53:41.051Z,89.87
2022-12-01T10:56:10.981Z,88.86
2022-12-01T10:58:50.117Z,89.13
2022-12-01T11:01:26.850Z,88.97
2022-12-01T11:04:35.518Z,88.51
2022-12-01T11:07:04.211Z,88.09
2022-12-01T11:09:35.896Z,89.48
2022-12-01T11:12:05.129Z,89.12
2022-12-01T11:14:47.952Z,88.06
2022-12-01T11:17:40.173Z,87.57
2022-12-01T11:20:40.012Z,87.42
2022-12-01T11:23:10.053Z,88.12
2022-12-01T11:25:38.108Z,88.59
2022-12-01T11:28:09.084Z,88.44
2022-12-01T11:30:36.169Z,87.72
2022-12-01T11:33:05.668Z,87.79
2022-12-01T11:35:37.995Z,87.20
2022-12-01T11:38:29.322Z,86.96
2022-12-01T11:41:00.894Z,86.71
2022-12-01T11:43:30.678Z,87.48
2022-12-01T11:46:03.688Z,86.02
2022-12-01T11:48:36.869Z,86.01
2022-12-01T11:51:27.054Z,88.12
2022-12-01T11:54:28.142Z,89.74
2022-12-01T11:57:31.869Z,90.92
2022-12-01T11:59:42.572Z,89.30
2022-12-01T12:02:53.352Z,88.34
2022-12-01T12:05:42.780Z,87.43
2022-12-01T12:08:58.636Z,88.04
2022-12-01T12:12:02.010Z,88.79
2022-12-01T12:14:55.145Z,89.26
2022-12-01T12:17:58.297Z,88.00
2022-12-01T12:20:41.076Z,86.34
2022-12-01T12:23:44.851Z,86.53
2022-12-01T12:26:24.428Z,85.53
2022-12-01T12:29:03.286Z,85.30
2022-12-01T12:31:33.069Z,84.76
2022-12-01T12:34:22.319Z,86.07
2022-12-01T12:37:41.894Z,86.99
2022-12-01T12:40:24.719Z,86.09
2022-12-01T12:43:04.138Z,85.05
2022-12-01T12:46:11.415Z,84.84
2022-12-01T12:52:08.116Z,86.16
2022-12-01T12:55:12.326Z,87.06
2022-12-01T12:57:58.293Z,87.66
2022-12-01T13:00:30.086Z,87.81
2022-12-01T13:03:12.481Z,88.08
2022-12-01T13:05:52.861Z,87.38
2022-12-01T13:08:48.282Z,85.08
2022-12-01T13:11:41.205Z,85.31
2022-12-01T13:14:39.435Z,84.56
2022-12-01T13:17:23.417Z,82.51
2022-12-01T13:19:50.671Z,82.87
2022-12-01T13:22:24.301Z,82.46
2022-12-01T13:24:51.344Z,82.20
2022-12-01T13:27:24.260Z,82.73
2022-12-01T13:29:54.379Z,81.78
2022-12-01T13:32:34.864Z,81.85
2022-12-01T13:35:08.391Z,82.07
2022-12-01T13:37:38.587Z,81.19
2022-12-01T13:40:19.399Z,81.94
2022-12-01T13:45:49.830Z,81.66
2022-12-01T13:48:40.456Z,81.60
2022-12-01T13:51:07.572Z,81.74
2022-12-01T13:53:40.628Z,80.85
2022-12-01T13:56:39.376Z,81.26
2022-12-01T14:00:00.727Z,82.55
2022-12-01T14:02:33.460Z,84.03
2022-12-01T14:05:22.241Z,83.36
2022-12-01T14:07:56.750Z,83.19
2022-12-01T14:10:53.240Z,84.70
2022-12-01T14:13:22.621Z,83.94
2022-12-01T14:16:03.849Z,83.59
2022-12-01T14:18:35.160Z,83.63
2022-12-01T14:21:08.922Z,83.22
2022-12-01T14:23:58.807Z,83.80
2022-12-01T14:26:28.537Z,82.27
2022-12-01T14:28:57.572Z,82.00
2022-12-01T14:31:49.823Z,82.30
2022-12-01T14:34:28.640Z,82.29
2022-12-01T14:37:03.830Z,82.09
2022-12-01T14:39:42.422Z,83.32
2022-12-01T14:42:43.392Z,83.53
2022-12-01T14:45:22.598Z,84.65
2022-12-01T14:48:20.143Z,84.03
2022-12-01T14:51:05.840Z,83.31
2022-12-01T14:53:36.633Z,84.74
2022-12-01T14:56:26.033Z,85.11
2022-12-01T14:59:01.742Z,85.27
2022-12-01T15:01:40.213Z,84.60
2022-12-01T15:04:11.659Z,84.97
2022-12-01T15:06:38.971Z,84.28
2022-12-01T15:12:07.689Z,86.18
2022-12-01T15:14:47.961Z,85.54
2022-12-01T15:17:37.044Z,86.12
2022-12-01T15:20:31.961Z,85.57
2022-12-01T15:23:00.182Z,85.01
2022-12-01T15:25:35.320Z,85.94
2022-12-01T15:28:22.614Z,86.04
2022-12-01T15:30:54.816Z,86.11
2022-12-01T15:33:36.960Z,85.06
2022-12-01T15:36:05.644Z,84.50
2022-12-01T15:38:37.258Z,84.83
2022-12-01T15:41:29.623Z,84.02
2022-12-01T15:44:08.303Z,85.16
2022-12-01T15:46:35.187Z,85.88
2022-12-01T15:49:27.931Z,86.69
2022-12-01T15:52:10.394Z,86.95
2022-12-01T15:54:38.266Z,86.67
2022-12-01T15:57:06.886Z,86.60
2022-12-01T15:59:44.791Z,87.01
2022-12-01T16:02:31.929Z,86.60
2022-12-01T16:05:22.364Z,86.69
2022-12-01T16:10:41.507Z,87.13
2022-12-01T16:13:48.899Z,87.49
2022-12-01T16:17:03.153Z,87.19
2022-12-01T16:19:35.965Z,87.97
2022-12-01T16:22:11.790Z,87.96
2022-12-01T16:24:53.579Z,87.11
2022-12-01T16:27:31.731Z,87.83
2022-12-01T16:30:03.573Z,86.41
2022-12-01T16:32:41.362Z,87.60
2022-12-01T16:35:30.877Z,86.07
2022-12-01T16:37:59.238Z,85.69
2022-12-01T16:40:31.794Z,85.48
2022-12-01T16:43:00.818Z,85.46
2022-12-01T16:45:27.675Z,85.31
2022-12-01T16:48:03.565Z,85.26
2022-12-01T16:50:33.922Z,84.39
2022-12-01T16:53:00.900Z,84.68
2022-12-01T16:55:41.855Z,84.27
2022-12-01T16:58:09.368Z,83.92
2022-12-01T17:00:38.621Z,83.79
2022-12-01T17:03:07.304Z,82.98
2022-12-01T17:05:34.713Z,82.78
2022-12-01T17:08:04.200Z,83.28
2022-12-01T17:10:34.230Z,82.82
2022-12-01T17:13:05.972Z,81.59
2022-12-01T17:15:33.072Z,82.15
2022-12-01T17:18:00.351Z,82.34
2022-12-01T17:20:29.342Z,83.04
2022-12-01T17:22:56.369Z,82.99
2022-12-01T17:25:23.326Z,83.99
2022-12-01T17:27:52.687Z,83.98
2022-12-01T17:30:19.629Z,83.94
2022-12-01T17:32:49.250Z,83.35
2022-12-01T17:35:19.284Z,82.86
2022-12-01T17:37:49.270Z,83.33
2022-12-01T17:40:18.520Z,83.71
2022-12-01T17:42:50.277Z,84.49
2022-12-01T17:45:18.975Z,84.13
2022-12-01T17:47:46.287Z,84.17
2022-12-01T17:50:13.577Z,83.37
2022-12-01T17:52:40.964Z,81.71
2022-12-01T17:55:09.269Z,83.58
2022-12-01T17:57:36.216Z,83.18
2022-12-01T18:00:07.567Z,82.81
2022-12-01T18:02:39.241Z,83.05
2022-12-01T18:05:06.888Z,83.12
2022-12-01T18:07:34.044Z,82.88
2022-12-01T18:10:00.997Z,81.82
2022-12-01T18:12:28.023Z,84.00
2022-12-01T18:14:54.990Z,83.78
2022-12-01T18:17:24.024Z,83.54
2022-12-01T18:19:54.060Z,83.64
2022-12-01T18:22:25.621Z,83.88
2022-12-01T18:24:57.629Z,83.31
2022-12-01T18:27:27.218Z,83.43
2022-12-01T18:29:54.219Z,83.18
2022-12-01T18:32:21.359Z,82.89
2022-12-01T18:34:48.768Z,81.62
2022-12-01T18:37:16.082Z,82.40
2022-12-01T18:39:43.039Z,82.85
2022-12-01T18:42:10.070Z,82.40
2022-12-01T18:44:38.879Z,81.95
2022-12-01T18:47:06.614Z,82.03
2022-12-01T18:49:33.811Z,82.04
2022-12-01T18:52:00.808Z,81.33
2022-12-01T18:54:27.960Z,81.17
2022-12-01T18:56:58.651Z,81.21
2022-12-01T18:59:33.278Z,81.09
2022-12-01T19:02:03.540Z,80.96
2022-12-01T19:04:32.965Z,81.58
2022-12-01T19:06:59.995Z,81.86
2022-12-01T19:09:27.008Z,81.27
2022-12-01T19:11:59.718Z,81.76
2022-12-01T19:14:29.283Z,82.26
2022-12-01T19:16:59.664Z,81.85
2022-12-01T19:19:33.004Z,82.17
2022-12-01T19:22:05.124Z,82.58
2022-12-01T19:24:32.479Z,82.57
2022-12-01T19:26:59.570Z,83.03
2022-12-01T19:29:26.626Z,83.28
2022-12-01T19:31:56.222Z,83.62
2022-12-01T19:34:23.420Z,83.07
2022-12-01T19:36:52.354Z,82.04
2022-12-01T19:39:22.419Z,82.15
2022-12-01T19:41:49.455Z,83.57
2022-12-01T19:44:16.823Z,82.92
2022-12-01T19:46:46.790Z,81.79
2022-12-01T19:49:14.865Z,82.33
2022-12-01T19:51:44.571Z,81.42
2022-12-01T19:54:17.705Z,80.99
2022-12-01T19:56:44.980Z,81.40
2022-12-01T19:59:14.374Z,81.54
2022-12-01T20:01:42.255Z,81.74
2022-12-01T20:04:11.844Z,81.12
2022-12-01T20:06:38.984Z,82.00
2022-12-01T20:09:07.912Z,82.97
2022-12-01T20:11:37.876Z,82.48
2022-12-01T20:14:11.718Z,83.75
2022-12-01T20:16:42.304Z,83.78
2022-12-01T20:19:14.757Z,83.90
2022-12-01T20:21:45.271Z,83.89
2022-12-01T20:24:15.195Z,84.92
2022-12-01T20:26:51.933Z,84.59
2022-12-01T20:29:27.233Z,85.36
2022-12-01T20:31:57.901Z,84.01
2022-12-01T20:34:37.295Z,84.92
2022-12-01T20:37:04.810Z,85.51
2022-12-01T20:39:34.984Z,85.18
2022-12-01T20:42:03.521Z,84.80
2022-12-01T20:44:33.082Z,84.18
2022-12-01T20:47:00.332Z,84.78
2022-12-01T20:49:33.036Z,84.54
2022-12-01T20:52:03.035Z,85.59
2022-12-01T20:54:31.118Z,85.29
2022-12-01T20:56:59.377Z,85.23
2022-12-01T20:59:30.240Z,86.03
2022-12-01T21:02:03.545Z,85.12
2022-12-01T21:04:30.542Z,85.03
2022-12-01T21:07:00.271Z,85.37
2022-12-01T21:09:28.519Z,85.55
2022-12-01T21:12:17.347Z,85.50
2022-12-01T21:15:30.303Z,84.71
2022-12-01T21:18:29.192Z,84.74
2022-12-01T21:21:07.970Z,85.10
2022-12-01T21:23:35.401Z,84.81
2022-12-01T21:26:11.859Z,85.18
2022-12-01T21:28:38.972Z,85.25
2022-12-01T21:31:16.175Z,86.05
2022-12-01T21:33:43.578Z,85.95
2022-12-01T21:36:22.530Z,86.28
2022-12-01T21:38:57.928Z,86.11
2022-12-01T21:41:28.584Z,86.36
2022-12-01T21:44:21.193Z,85.65
2022-12-01T21:46:55.244Z,85.90
2022-12-01T21:49:35.700Z,85.54
2022-12-01T21:52:09.752Z,85.67
2022-12-01T21:54:36.653Z,85.60
2022-12-01T21:57:26.404Z,86.60
2022-12-01T22:00:01.110Z,85.95
2022-12-01T22:03:20.452Z,85.51
2022-12-01T22:06:27.699Z,87.54
2022-12-01T22:08:50.849Z,87.45
2022-12-01T22:11:22.252Z,88.72
2022-12-01T22:14:05.065Z,87.80
2022-12-01T22:16:34.265Z,87.39
2022-12-01T22:19:31.971Z,87.78
2022-12-01T22:22:15.653Z,88.80
2022-12-01T22:24:54.045Z,89.77
2022-12-01T22:27:43.956Z,90.33
2022-12-01T22:30:17.796Z,89.22
2022-12-01T22:33:00.673Z,89.21
2022-12-01T22:35:34.493Z,88.93
2022-12-01T22:38:28.320Z,87.73
2022-12-01T22:41:06.885Z,88.12
2022-12-01T22:43:41.816Z,87.86
2022-12-01T22:46:34.030Z,86.71
2022-12-01T22:49:10.161Z,87.31
2022-12-01T22:51:41.488Z,87.83
2022-12-01T22:54:14.562Z,86.90
2022-12-01T22:57:02.175Z,87.35
2022-12-01T22:59:35.229Z,86.51
2022-12-01T23:02:29.233Z,87.47
2022-12-01T23:05:01.047Z,86.14
2022-12-01T23:07:36.901Z,85.77
2022-12-01T23:10:18.740Z,85.55
2022-12-01T23:12:49.405Z,85.25
2022-12-01T23:15:39.000Z,85.73
2022-12-01T23:18:19.418Z,85.84
2022-12-01T23:21:07.359Z,85.31
2022-12-01T23:23:39.386Z,84.00
2022-12-01T23:26:08.784Z,83.33
2022-12-01T23:28:39.214Z,83.76
2022-12-01T23:31:06.765Z,82.66
2022-12-01T23:33:35.378Z,82.62
2022-12-01T23:36:24.457Z,82.15
2022-12-01T23:38:58.990Z,81.38
2022-12-01T23:41:41.363Z,82.38
2022-12-01T23:44:39.130Z,81.47
2022-12-01T23:47:24.158Z,81.47
2022-12-01T23:50:03.769Z,81.21
2022-12-01T23:52:37.280Z,82.22
2022-12-01T23:55:21.865Z,81.69
2022-12-01T23:57:50.494Z,81.89
